createdAt,value
2018-01-28T00:00:39.936Z,9.03
2018-01-28T00:01:39.953Z,9.08
2018-01-28T00:02:40.219Z,9.14
2018-01-28T00:03:39.725Z,9.04
2018-01-28T00:04:40.246Z,9.08
2018-01-28T00:05:39.987Z,9.06
2018-01-28T00:06:40.012Z,9.06
2018-01-28T00:07:39.791Z,9.18
2018-01-28T00:08:40.038Z,9.28
2018-01-28T00:09:40.068Z,9.32
2018-01-28T00:10:40.087Z,9.37
2018-01-28T00:11:40.362Z,9.28
2018-01-28T00:12:40.107Z,9.23
2018-01-28T00:13:40.392Z,9.28
2018-01-28T00:14:40.138Z,9.14
2018-01-28T00:15:40.427Z,9.19
2018-01-28T00:16:39.938Z,9.28
2018-01-28T00:17:40.211Z,9.31
2018-01-28T00:18:40.458Z,9.18
2018-01-28T00:19:40.221Z,9.06
2018-01-28T00:20:40.000Z,8.95
2018-01-28T00:21:40.525Z,9.1
2018-01-28T00:22:40.543Z,9.04
2018-01-28T00:23:40.565Z,9.16
2018-01-28T00:24:40.317Z,9.16
2018-01-28T00:25:40.332Z,9.19
2018-01-28T00:26:40.369Z,9.18
2018-01-28T00:27:40.379Z,9.31
2018-01-28T00:28:40.626Z,9.39
2018-01-28T00:29:40.642Z,9.32
2018-01-28T00:30:40.659Z,9.25
2018-01-28T00:31:40.719Z,9.34
2018-01-28T00:32:40.200Z,9.1
2018-01-28T00:33:40.458Z,9.18
2018-01-28T00:34:40.224Z,9.29
2018-01-28T00:35:40.499Z,9.39
2018-01-28T00:36:40.760Z,9.34
2018-01-28T00:37:40.773Z,9.41
2018-01-28T00:38:40.815Z,9.36
2018-01-28T00:39:40.312Z,9.39
2018-01-28T00:40:40.574Z,9.29
2018-01-28T00:41:40.842Z,9.31
2018-01-28T00:42:40.616Z,9.14
2018-01-28T00:43:40.623Z,9.36
2018-01-28T00:44:40.642Z,9.14
2018-01-28T00:45:40.660Z,9.04
2018-01-28T00:46:40.679Z,9.14
2018-01-28T00:47:40.439Z,9.19
2018-01-28T00:48:40.707Z,9
2018-01-28T00:49:40.974Z,9.04
2018-01-28T00:50:40.993Z,8.79
2018-01-28T00:51:40.758Z,9
2018-01-28T00:52:40.778Z,9
2018-01-28T00:53:40.549Z,8.99
2018-01-28T00:54:40.557Z,8.85
2018-01-28T00:55:41.086Z,8.94
2018-01-28T00:56:40.592Z,9.03
2018-01-28T00:57:40.862Z,9.02
2018-01-28T00:58:40.879Z,8.92
2018-01-28T00:59:40.896Z,9.1
2018-01-28T01:00:41.180Z,9.06
2018-01-28T01:01:40.676Z,8.95
2018-01-28T01:02:41.198Z,9.03
2018-01-28T01:03:41.221Z,8.97
2018-01-28T01:04:40.980Z,9.1
2018-01-28T01:05:40.992Z,9.04
2018-01-28T01:06:40.760Z,9.02
2018-01-28T01:07:41.276Z,9.03
2018-01-28T01:08:41.044Z,9.03
2018-01-28T01:09:40.810Z,9.13
2018-01-28T01:11:40.843Z,9.41
2018-01-28T01:12:41.105Z,9.29
2018-01-28T01:13:40.878Z,9.26
2018-01-28T01:14:41.143Z,9.02
2018-01-28T01:15:41.166Z,9.08
2018-01-28T01:16:41.179Z,9.14
2018-01-28T01:17:40.999Z,9.13
2018-01-28T01:18:41.468Z,8.97
2018-01-28T01:19:41.481Z,8.97
2018-01-28T01:20:41.516Z,9
2018-01-28T01:21:41.008Z,9.04
2018-01-28T01:22:41.028Z,8.79
2018-01-28T01:23:41.041Z,8.78
2018-01-28T01:24:41.568Z,8.81
2018-01-28T01:25:41.331Z,8.79
2018-01-28T01:26:41.596Z,8.78
2018-01-28T01:27:41.111Z,8.89
2018-01-28T01:28:41.378Z,8.81
2018-01-28T01:29:41.144Z,8.92
2018-01-28T01:30:41.414Z,8.95
2018-01-28T01:31:41.430Z,9.02
2018-01-28T01:32:41.448Z,9.03
2018-01-28T01:33:41.212Z,8.94
2018-01-28T01:34:41.482Z,8.81
2018-01-28T01:35:41.754Z,8.99
2018-01-28T01:36:41.311Z,8.81
2018-01-28T01:37:41.531Z,8.84
2018-01-28T01:38:41.854Z,8.81
2018-01-28T01:39:41.811Z,8.74
2018-01-28T01:40:41.582Z,8.85
2018-01-28T01:41:41.846Z,8.76
2018-01-28T01:42:41.359Z,8.78
2018-01-28T01:43:41.378Z,8.84
2018-01-28T01:44:41.648Z,8.74
2018-01-28T01:45:41.918Z,8.78
2018-01-28T01:46:41.947Z,8.78
2018-01-28T01:47:41.693Z,8.85
2018-01-28T01:48:41.460Z,8.84
2018-01-28T01:49:41.733Z,8.85
2018-01-28T01:50:41.491Z,8.81
2018-01-28T01:51:41.758Z,8.84
2018-01-28T01:52:41.791Z,8.69
2018-01-28T01:53:42.046Z,8.69
2018-01-28T01:54:41.806Z,8.69
2018-01-28T01:55:42.074Z,8.7
2018-01-28T01:56:41.839Z,8.69
2018-01-28T01:57:41.871Z,8.76
2018-01-28T01:58:42.129Z,8.69
2018-01-28T01:59:42.243Z,8.67
2018-01-28T02:00:41.914Z,8.6
2018-01-28T02:01:42.178Z,8.66
2018-01-28T02:02:42.204Z,8.73
2018-01-28T02:03:41.702Z,8.71
2018-01-28T02:04:41.727Z,8.7
2018-01-28T02:05:42.248Z,8.74
2018-01-28T02:06:41.755Z,8.78
2018-01-28T02:07:41.783Z,8.61
2018-01-28T02:08:42.045Z,8.46
2018-01-28T02:09:42.056Z,8.44
2018-01-28T02:10:41.817Z,8.46
2018-01-28T02:11:42.088Z,8.38
2018-01-28T02:12:42.106Z,8.41
2018-01-28T02:13:42.376Z,8.51
2018-01-28T02:14:42.226Z,8.41
2018-01-28T02:15:42.153Z,8.52
2018-01-28T02:16:42.438Z,8.49
2018-01-28T02:17:42.197Z,8.64
2018-01-28T02:18:42.202Z,8.63
2018-01-28T02:19:42.472Z,8.76
2018-01-28T02:20:42.243Z,8.7
2018-01-28T02:21:56.939Z,8.71
2018-01-28T02:22:42.279Z,8.6
2018-01-28T02:23:42.283Z,8.66
2018-01-28T02:24:42.049Z,8.66
2018-01-28T02:25:42.566Z,8.7
2018-01-28T02:26:42.332Z,8.71
2018-01-28T02:27:42.350Z,8.73
2018-01-28T02:28:42.618Z,8.69
2018-01-28T02:29:42.151Z,8.69
2018-01-28T02:30:42.665Z,8.7
2018-01-28T02:31:42.422Z,8.61
2018-01-28T02:32:42.549Z,8.64
2018-01-28T02:33:42.449Z,8.76
2018-01-28T02:34:42.214Z,8.67
2018-01-28T02:35:42.485Z,8.61
2018-01-28T02:36:42.512Z,8.67
2018-01-28T02:37:42.772Z,8.51
2018-01-28T02:38:42.530Z,8.42
2018-01-28T02:39:42.298Z,8.48
2018-01-28T02:40:42.814Z,8.56
2018-01-28T02:41:42.849Z,8.48
2018-01-28T02:42:42.595Z,8.31
2018-01-28T02:43:42.614Z,8.33
2018-01-28T02:44:42.628Z,8.3
2018-01-28T02:45:42.900Z,8.42
2018-01-28T02:46:42.408Z,8.41
2018-01-28T02:47:42.676Z,8.49
2018-01-28T02:48:42.952Z,8.49
2018-01-28T02:49:42.721Z,8.6
2018-01-28T02:50:42.476Z,8.67
2018-01-28T02:51:42.488Z,8.55
2018-01-28T02:52:42.525Z,8.52
2018-01-28T02:53:42.783Z,8.45
2018-01-28T02:54:43.042Z,8.55
2018-01-28T02:55:42.806Z,8.48
2018-01-28T02:56:43.080Z,8.45
2018-01-28T02:57:43.095Z,8.45
2018-01-28T02:58:42.855Z,8.41
2018-01-28T02:59:42.887Z,8.51
2018-01-28T03:00:42.637Z,8.58
2018-01-28T03:01:43.152Z,8.48
2018-01-28T03:02:42.672Z,8.69
2018-01-28T03:03:43.199Z,8.61
2018-01-28T03:04:42.957Z,8.45
2018-01-28T03:05:42.968Z,8.56
2018-01-28T03:06:42.984Z,8.58
2018-01-28T03:07:43.002Z,8.64
2018-01-28T03:08:43.021Z,8.7
2018-01-28T03:09:43.054Z,8.48
2018-01-28T03:10:43.049Z,8.31
2018-01-28T03:11:43.072Z,8.36
2018-01-28T03:12:43.339Z,8.26
2018-01-28T03:13:42.849Z,8.37
2018-01-28T03:14:43.568Z,8.24
2018-01-28T03:15:43.134Z,8.12
2018-01-28T03:16:42.897Z,8.12
2018-01-28T03:17:42.913Z,8.12
2018-01-28T03:18:43.179Z,8.28
2018-01-28T03:19:43.198Z,8.13
2018-01-28T03:20:42.964Z,8.15
2018-01-28T03:21:42.987Z,8.15
2018-01-28T03:22:43.250Z,8.03
2018-01-28T03:23:43.012Z,8.03
2018-01-28T03:24:43.279Z,8
2018-01-28T03:25:43.298Z,7.94
2018-01-28T03:26:43.316Z,8
2018-01-28T03:27:43.332Z,8.05
2018-01-28T03:28:43.115Z,7.95
2018-01-28T03:29:43.364Z,7.9
2018-01-28T03:30:43.629Z,8.01
2018-01-28T03:31:43.406Z,7.95
2018-01-28T03:32:43.415Z,8.1
2018-01-28T03:33:43.426Z,8.1
2018-01-28T03:34:43.439Z,8.05
2018-01-28T03:35:43.728Z,8.01
2018-01-28T03:36:43.473Z,8.08
2018-01-28T03:37:43.741Z,8.09
2018-01-28T03:38:43.506Z,8.18
2018-01-28T03:39:43.261Z,8.31
2018-01-28T03:40:43.780Z,8.28
2018-01-28T03:41:43.797Z,8.2
2018-01-28T03:42:43.814Z,8.2
2018-01-28T03:43:43.585Z,8.31
2018-01-28T03:44:43.346Z,8.3
2018-01-28T03:45:43.876Z,8.24
2018-01-28T03:46:43.882Z,8.3
2018-01-28T03:47:43.396Z,8.36
2018-01-28T03:48:43.413Z,8.3
2018-01-28T03:49:43.677Z,8.19
2018-01-28T03:50:43.462Z,8.16
2018-01-28T03:51:43.716Z,8.24
2018-01-28T03:52:43.983Z,8.41
2018-01-28T03:53:43.496Z,8.44
2018-01-28T03:54:44.021Z,8.37
2018-01-28T03:55:43.776Z,8.58
2018-01-28T03:56:43.793Z,8.44
2018-01-28T03:57:44.077Z,8.38
2018-01-28T03:58:43.578Z,8.3
2018-01-28T03:59:43.592Z,8.26
2018-01-28T04:00:43.857Z,8.28
2018-01-28T04:01:44.125Z,8.31
2018-01-28T04:02:43.891Z,8.36
2018-01-28T04:03:44.164Z,8.49
2018-01-28T04:04:43.923Z,8.44
2018-01-28T04:05:43.689Z,8.41
2018-01-28T04:06:43.955Z,8.33
2018-01-28T04:07:43.718Z,8.3
2018-01-28T04:08:43.988Z,8.42
2018-01-28T04:09:44.003Z,8.41
2018-01-28T04:10:44.271Z,8.48
2018-01-28T04:11:44.287Z,8.48
2018-01-28T04:12:44.109Z,8.36
2018-01-28T04:13:44.066Z,8.41
2018-01-28T04:14:44.083Z,8.33
2018-01-28T04:15:44.350Z,8.27
2018-01-28T04:16:44.123Z,8.27
2018-01-28T04:17:44.413Z,8.24
2018-01-28T04:18:44.148Z,8.27
2018-01-28T04:19:44.179Z,8.28
2018-01-28T04:20:44.179Z,8.15
2018-01-28T04:21:44.198Z,8.13
2018-01-28T04:22:43.961Z,8.01
2018-01-28T04:23:44.228Z,7.97
2018-01-28T04:24:43.994Z,7.97
2018-01-28T04:25:44.517Z,8
2018-01-28T04:26:44.276Z,8.12
2018-01-28T04:27:44.045Z,8.08
2018-01-28T04:28:44.309Z,8.08
2018-01-28T04:29:44.627Z,8.13
2018-01-28T04:30:44.090Z,8.08
2018-01-28T04:31:44.357Z,8.06
2018-01-28T04:32:44.123Z,8.06
2018-01-28T04:33:44.145Z,8.06
2018-01-28T04:34:44.417Z,8.08
2018-01-28T04:35:44.175Z,8.27
2018-01-28T04:36:44.438Z,8.34
2018-01-28T04:37:44.462Z,8.38
2018-01-28T04:38:44.473Z,8.34
2018-01-28T04:39:44.488Z,8.42
2018-01-28T04:40:44.504Z,8.37
2018-01-28T04:41:44.276Z,8.28
2018-01-28T04:42:44.536Z,8.3
2018-01-28T04:43:44.298Z,8.31
2018-01-28T04:44:44.584Z,8.2
2018-01-28T04:45:44.843Z,8.12
2018-01-28T04:46:44.604Z,8.08
2018-01-28T04:47:44.886Z,8.12
2018-01-28T04:48:44.903Z,8.03
2018-01-28T04:49:44.651Z,8.09
2018-01-28T04:50:44.917Z,8.03
2018-01-28T04:51:44.946Z,8.15
2018-01-28T04:52:44.699Z,8.15
2018-01-28T04:53:44.714Z,8.13
2018-01-28T04:54:44.982Z,8.15
2018-01-28T04:55:44.751Z,7.95
2018-01-28T04:56:44.771Z,7.97
2018-01-28T04:57:44.781Z,8.01
2018-01-28T04:58:44.793Z,7.95
2018-01-28T04:59:44.810Z,8.16
2018-01-28T05:00:44.826Z,7.98
2018-01-28T05:01:45.115Z,7.97
2018-01-28T05:02:45.117Z,8
2018-01-28T05:03:44.890Z,7.97
2018-01-28T05:04:44.635Z,8.12
2018-01-28T05:05:44.649Z,8.05
2018-01-28T05:06:45.166Z,7.91
2018-01-28T05:07:44.935Z,7.97
2018-01-28T05:08:44.951Z,7.93
2018-01-28T05:09:44.716Z,7.98
2018-01-28T05:10:44.748Z,7.88
2018-01-28T05:11:44.999Z,7.98
2018-01-28T05:12:45.276Z,7.85
2018-01-28T05:13:45.293Z,7.95
2018-01-28T05:14:45.294Z,7.87
2018-01-28T05:15:45.062Z,7.87
2018-01-28T05:16:45.329Z,7.8
2018-01-28T05:17:45.150Z,7.88
2018-01-28T05:18:45.119Z,7.79
2018-01-28T05:19:45.135Z,7.63
2018-01-28T05:20:45.151Z,7.76
2018-01-28T05:21:45.164Z,7.63
2018-01-28T05:22:44.934Z,7.73
2018-01-28T05:23:45.198Z,7.7
2018-01-28T05:24:45.213Z,7.6
2018-01-28T05:25:45.231Z,7.58
2018-01-28T05:26:45.243Z,7.73
2018-01-28T05:27:45.263Z,7.85
2018-01-28T05:28:45.287Z,7.95
2018-01-28T05:29:45.291Z,7.94
2018-01-28T05:30:45.559Z,7.83
2018-01-28T05:31:45.320Z,7.85
2018-01-28T05:32:45.361Z,7.93
2018-01-28T05:33:45.356Z,7.95
2018-01-28T05:34:45.622Z,7.7
2018-01-28T05:35:45.400Z,7.9
2018-01-28T05:36:45.653Z,7.88
2018-01-28T05:37:45.167Z,7.82
2018-01-28T05:38:45.694Z,7.79
2018-01-28T05:39:45.468Z,7.8
2018-01-28T05:40:45.217Z,7.76
2018-01-28T05:41:45.480Z,7.83
2018-01-28T05:42:45.756Z,7.85
2018-01-28T05:43:45.512Z,7.79
2018-01-28T05:44:45.528Z,7.85
2018-01-28T05:45:45.545Z,7.87
2018-01-28T05:46:45.561Z,7.83
2018-01-28T05:47:45.583Z,7.83
2018-01-28T05:48:45.843Z,7.69
2018-01-28T05:49:45.356Z,7.66
2018-01-28T05:50:45.640Z,7.73
2018-01-28T05:51:45.389Z,7.77
2018-01-28T05:52:45.409Z,7.73
2018-01-28T05:53:45.921Z,7.69
2018-01-28T05:54:45.712Z,7.67
2018-01-28T05:55:45.703Z,7.76
2018-01-28T05:56:45.720Z,7.77
2018-01-28T05:57:46.000Z,7.67
2018-01-28T05:58:46.004Z,7.7
2018-01-28T05:59:46.024Z,7.75
2018-01-28T06:00:46.031Z,7.67
2018-01-28T06:01:45.799Z,7.76
2018-01-28T06:02:46.066Z,7.67
2018-01-28T06:03:46.091Z,7.7
2018-01-28T06:04:45.592Z,7.82
2018-01-28T06:05:45.861Z,7.72
2018-01-28T06:06:45.624Z,7.73
2018-01-28T06:07:45.893Z,7.83
2018-01-28T06:08:45.906Z,7.87
2018-01-28T06:09:46.193Z,7.82
2018-01-28T06:10:46.190Z,7.85
2018-01-28T06:11:46.206Z,7.83
2018-01-28T06:12:45.986Z,7.87
2018-01-28T06:13:45.984Z,7.77
2018-01-28T06:14:46.004Z,7.77
2018-01-28T06:15:46.012Z,7.76
2018-01-28T06:16:46.029Z,7.83
2018-01-28T06:17:45.793Z,7.77
2018-01-28T06:18:46.062Z,7.85
2018-01-28T06:19:46.075Z,7.82
2018-01-28T06:20:45.843Z,7.63
2018-01-28T06:21:46.112Z,7.87
2018-01-28T06:22:46.175Z,7.94
2018-01-28T06:23:45.893Z,7.82
2018-01-28T06:24:46.409Z,7.73
2018-01-28T06:25:46.181Z,7.8
2018-01-28T06:26:46.190Z,7.66
2018-01-28T06:27:46.454Z,7.72
2018-01-28T06:28:46.475Z,7.82
2018-01-28T06:29:46.579Z,7.82
2018-01-28T06:30:46.513Z,7.75
2018-01-28T06:31:46.285Z,7.73
2018-01-28T06:32:46.293Z,7.82
2018-01-28T06:33:46.302Z,7.87
2018-01-28T06:34:46.572Z,7.83
2018-01-28T06:35:46.337Z,7.87
2018-01-28T06:36:46.606Z,7.95
2018-01-28T06:37:46.373Z,7.87
2018-01-28T06:38:46.636Z,7.61
2018-01-28T06:39:46.651Z,7.79
2018-01-28T06:40:46.670Z,7.76
2018-01-28T06:41:46.711Z,7.82
2018-01-28T06:42:46.703Z,7.73
2018-01-28T06:43:46.214Z,7.69
2018-01-28T06:44:46.481Z,7.76
2018-01-28T06:45:46.500Z,7.82
2018-01-28T06:46:46.761Z,7.76
2018-01-28T06:47:46.528Z,7.67
2018-01-28T06:48:46.541Z,7.75
2018-01-28T06:49:46.810Z,7.76
2018-01-28T06:50:46.580Z,7.82
2018-01-28T06:51:46.842Z,7.85
2018-01-28T06:52:46.661Z,7.67
2018-01-28T06:53:46.638Z,7.48
2018-01-28T06:54:46.920Z,7.58
2018-01-28T06:55:46.653Z,7.69
2018-01-28T06:56:46.417Z,7.56
2018-01-28T06:57:46.938Z,7.6
2018-01-28T06:58:46.954Z,7.7
2018-01-28T06:59:46.465Z,7.69
2018-01-28T07:00:46.735Z,7.69
2018-01-28T07:01:46.748Z,7.58
2018-01-28T07:02:46.761Z,7.48
2018-01-28T07:03:46.528Z,7.61
2018-01-28T07:04:47.047Z,7.53
2018-01-28T07:05:47.066Z,7.48
2018-01-28T07:06:46.827Z,7.58
2018-01-28T07:07:47.092Z,7.61
2018-01-28T07:08:47.111Z,7.56
2018-01-28T07:09:46.876Z,7.57
2018-01-28T07:10:46.888Z,7.66
2018-01-28T07:11:47.245Z,7.7
2018-01-28T07:12:47.172Z,7.77
2018-01-28T07:13:46.936Z,7.91
2018-01-28T07:14:46.959Z,7.94
2018-01-28T07:15:47.237Z,7.97
2018-01-28T07:16:46.984Z,8.09
2018-01-28T07:17:47.252Z,7.95
2018-01-28T07:18:47.015Z,8.1
2018-01-28T07:19:47.030Z,8.12
2018-01-28T07:20:47.049Z,8
2018-01-28T07:21:47.065Z,8.13
2018-01-28T07:22:47.077Z,8.16
2018-01-28T07:23:47.103Z,8.2
2018-01-28T07:24:47.364Z,8.23
2018-01-28T07:25:47.383Z,8.33
2018-01-28T07:26:47.395Z,8.41
2018-01-28T07:27:46.906Z,8.24
2018-01-28T07:28:47.422Z,8.1
2018-01-28T07:29:47.438Z,8.18
2018-01-28T07:30:46.982Z,8.26
2018-01-28T07:31:47.222Z,8.27
2018-01-28T07:32:47.243Z,8.31
2018-01-28T07:33:47.516Z,8.28
2018-01-28T07:34:47.523Z,8.2
2018-01-28T07:35:47.296Z,8.26
2018-01-28T07:36:47.556Z,8.36
2018-01-28T07:37:47.369Z,8.26
2018-01-28T07:38:47.336Z,8.16
2018-01-28T07:39:47.610Z,7.94
2018-01-28T07:40:47.391Z,8.1
2018-01-28T07:41:47.641Z,8.1
2018-01-28T07:42:47.652Z,8.19
2018-01-28T07:43:47.169Z,8.19
2018-01-28T07:44:47.439Z,8.15
2018-01-28T07:45:47.705Z,8.3
2018-01-28T07:46:47.469Z,8.27
2018-01-28T07:47:47.484Z,8.15
2018-01-28T07:48:48.040Z,8.27
2018-01-28T07:49:47.516Z,8.3
2018-01-28T07:50:47.788Z,8.49
2018-01-28T07:51:47.801Z,8.44
2018-01-28T07:52:47.333Z,8.45
2018-01-28T07:53:47.331Z,8.55
2018-01-28T07:54:47.595Z,8.55
2018-01-28T07:55:47.619Z,8.38
2018-01-28T07:56:47.373Z,8.41
2018-01-28T07:57:47.892Z,8.46
2018-01-28T07:58:47.403Z,8.48
2018-01-28T07:59:47.685Z,8.52
2018-01-28T08:00:47.691Z,8.63
2018-01-28T08:01:47.706Z,8.66
2018-01-28T08:02:47.971Z,8.67
2018-01-28T08:03:47.740Z,8.61
2018-01-28T08:04:48.005Z,8.69
2018-01-28T08:05:47.770Z,8.69
2018-01-28T08:06:47.557Z,8.76
2018-01-28T08:07:48.056Z,8.81
2018-01-28T08:08:48.068Z,8.69
2018-01-28T08:09:47.847Z,8.63
2018-01-28T08:10:48.114Z,8.58
2018-01-28T08:11:47.876Z,8.73
2018-01-28T08:12:47.889Z,8.67
2018-01-28T08:13:47.908Z,8.73
2018-01-28T08:14:48.177Z,8.74
2018-01-28T08:15:47.690Z,8.7
2018-01-28T08:16:47.961Z,8.87
2018-01-28T08:17:47.976Z,8.79
2018-01-28T08:18:47.738Z,9.03
2018-01-28T08:19:48.009Z,9.02
2018-01-28T08:20:48.279Z,9.13
2018-01-28T08:21:48.041Z,9.02
2018-01-28T08:22:48.307Z,9.02
2018-01-28T08:23:48.074Z,8.99
2018-01-28T08:24:48.094Z,8.94
2018-01-28T08:25:48.104Z,8.74
2018-01-28T08:26:48.371Z,8.99
2018-01-28T08:27:47.886Z,8.81
2018-01-28T08:28:48.415Z,8.84
2018-01-28T08:29:48.175Z,8.79
2018-01-28T08:30:47.946Z,8.69
2018-01-28T08:31:48.205Z,8.82
2018-01-28T08:32:48.221Z,9
2018-01-28T08:33:48.239Z,9.06
2018-01-28T08:34:48.506Z,9.04
2018-01-28T08:35:48.524Z,8.97
2018-01-28T08:36:48.294Z,9.06
2018-01-28T08:37:48.307Z,9
2018-01-28T08:38:48.070Z,9.13
2018-01-28T08:39:48.087Z,9.06
2018-01-28T08:40:48.612Z,8.88
2018-01-28T08:41:48.626Z,8.95
2018-01-28T08:42:48.390Z,8.97
2018-01-28T08:43:48.158Z,9
2018-01-28T08:44:48.426Z,9.16
2018-01-28T08:45:48.439Z,9.16
2018-01-28T08:46:48.460Z,9.28
2018-01-28T08:47:48.727Z,9.43
2018-01-28T08:48:48.493Z,9.34
2018-01-28T08:49:48.758Z,9.31
2018-01-28T08:50:48.279Z,9.19
2018-01-28T08:51:48.803Z,9.18
2018-01-28T08:52:48.814Z,9.1
2018-01-28T08:53:48.835Z,9.1
2018-01-28T08:54:48.605Z,9.1
2018-01-28T08:55:48.863Z,9.28
2018-01-28T08:56:48.633Z,9.28
2018-01-28T08:57:48.643Z,9.32
2018-01-28T08:58:48.929Z,9.32
2018-01-28T08:59:48.428Z,9.23
2018-01-28T09:00:48.703Z,9.22
2018-01-28T09:01:48.974Z,9.31
2018-01-28T09:02:48.987Z,9.32
2018-01-28T09:03:48.497Z,9.31
2018-01-28T09:04:48.763Z,9.28
2018-01-28T09:05:48.798Z,9.32
2018-01-28T09:06:48.810Z,9.46
2018-01-28T09:07:48.828Z,9.61
2018-01-28T09:08:48.844Z,9.68
2018-01-28T09:09:49.109Z,9.64
2018-01-28T09:10:48.869Z,9.77
2018-01-28T09:11:49.139Z,9.56
2018-01-28T09:12:48.905Z,9.69
2018-01-28T09:13:49.183Z,9.72
2018-01-28T09:14:48.940Z,9.64
2018-01-28T09:15:49.218Z,9.64
2018-01-28T09:16:49.379Z,9.64
2018-01-28T09:17:49.243Z,9.64
2018-01-28T09:18:49.006Z,9.76
2018-01-28T09:19:49.032Z,9.79
2018-01-28T09:20:49.052Z,9.82
2018-01-28T09:21:49.094Z,9.82
2018-01-28T09:22:49.082Z,9.84
2018-01-28T09:23:49.349Z,9.86
2018-01-28T09:24:48.864Z,10.02
2018-01-28T09:25:49.403Z,9.95
2018-01-28T09:26:49.399Z,9.98
2018-01-28T09:27:49.166Z,9.82
2018-01-28T09:28:48.946Z,9.83
2018-01-28T09:29:49.473Z,9.86
2018-01-28T09:30:49.267Z,9.98
2018-01-28T09:31:49.566Z,10.09
2018-01-28T09:32:49.001Z,10.09
2018-01-28T09:33:49.273Z,10.04
2018-01-28T09:34:49.292Z,10.16
2018-01-28T09:35:49.309Z,10.25
2018-01-28T09:36:49.336Z,10.05
2018-01-28T09:37:49.596Z,10.01
2018-01-28T09:38:49.618Z,9.99
2018-01-28T09:39:49.130Z,9.95
2018-01-28T09:40:49.400Z,9.87
2018-01-28T09:41:49.421Z,10.01
2018-01-28T09:42:49.690Z,9.82
2018-01-28T09:43:49.704Z,9.92
2018-01-28T09:44:49.726Z,9.94
2018-01-28T09:45:49.797Z,9.94
2018-01-28T09:46:49.758Z,9.66
2018-01-28T09:47:49.774Z,9.62
2018-01-28T09:48:49.791Z,9.64
2018-01-28T09:49:49.562Z,9.64
2018-01-28T09:50:49.594Z,9.54
2018-01-28T09:51:49.847Z,9.54
2018-01-28T09:52:49.869Z,9.43
2018-01-28T09:53:49.649Z,9.34
2018-01-28T09:54:49.646Z,9.39
2018-01-28T09:55:49.923Z,9.55
2018-01-28T09:56:49.681Z,9.54
2018-01-28T09:57:49.975Z,9.69
2018-01-28T09:58:49.467Z,9.51
2018-01-28T09:59:49.985Z,9.58
2018-01-28T10:00:49.763Z,9.59
2018-01-28T10:01:49.770Z,9.68
2018-01-28T10:02:49.791Z,9.58
2018-01-28T10:03:50.055Z,9.72
2018-01-28T10:04:49.822Z,9.72
2018-01-28T10:05:49.844Z,9.74
2018-01-28T10:06:49.606Z,9.64
2018-01-28T10:07:49.889Z,9.84
2018-01-28T10:08:49.640Z,9.95
2018-01-28T10:09:49.658Z,10.12
2018-01-28T10:10:49.926Z,10.22
2018-01-28T10:11:50.199Z,10.34
2018-01-28T10:12:50.215Z,10.19
2018-01-28T10:13:49.992Z,9.99
2018-01-28T10:14:49.751Z,9.91
2018-01-28T10:15:49.765Z,9.91
2018-01-28T10:16:50.033Z,9.92
2018-01-28T10:17:50.054Z,9.99
2018-01-28T10:18:50.068Z,9.98
2018-01-28T10:19:49.838Z,10.04
2018-01-28T10:20:50.362Z,10.07
2018-01-28T10:21:50.124Z,10.17
2018-01-28T10:22:50.140Z,10.04
2018-01-28T10:23:50.161Z,10.13
2018-01-28T10:24:50.432Z,10.02
2018-01-28T10:25:50.467Z,10.12
2018-01-28T10:26:50.212Z,10.02
2018-01-28T10:27:49.982Z,10.02
2018-01-28T10:28:49.996Z,10.1
2018-01-28T10:29:50.272Z,10.13
2018-01-28T10:30:50.287Z,10.1
2018-01-28T10:31:50.305Z,10.13
2018-01-28T10:32:50.321Z,9.99
2018-01-28T10:33:50.338Z,10.02
2018-01-28T10:34:50.359Z,10.26
2018-01-28T10:35:50.373Z,10.35
2018-01-28T10:36:50.141Z,10.41
2018-01-28T10:37:50.669Z,10.54
2018-01-28T10:38:50.446Z,10.28
2018-01-28T10:39:50.193Z,10.26
2018-01-28T10:40:50.215Z,10.19
2018-01-28T10:41:50.242Z,10.17
2018-01-28T10:42:50.768Z,10.25
2018-01-28T10:43:50.515Z,10.34
2018-01-28T10:44:50.786Z,10.37
2018-01-28T10:45:50.817Z,10.26
2018-01-28T10:46:50.319Z,10.35
2018-01-28T10:47:50.589Z,10.57
2018-01-28T10:48:50.610Z,10.57
2018-01-28T10:49:50.897Z,10.69
2018-01-28T10:50:50.895Z,10.81
2018-01-28T10:51:50.661Z,10.61
2018-01-28T10:52:50.681Z,10.56
2018-01-28T10:53:50.958Z,10.56
2018-01-28T10:54:50.997Z,10.64
2018-01-28T10:55:50.745Z,10.61
2018-01-28T10:56:51.015Z,10.74
2018-01-28T10:57:50.792Z,10.6
2018-01-28T10:58:50.786Z,10.63
2018-01-28T10:59:51.074Z,10.61
2018-01-28T11:00:50.832Z,10.6
2018-01-28T11:01:50.591Z,10.75
2018-01-28T11:02:51.110Z,10.59
2018-01-28T11:03:50.882Z,10.74
2018-01-28T11:04:50.897Z,10.9
2018-01-28T11:05:51.220Z,10.96
2018-01-28T11:06:50.712Z,10.79
2018-01-28T11:07:50.952Z,10.61
2018-01-28T11:08:50.970Z,10.59
2018-01-28T11:09:50.998Z,10.72
2018-01-28T11:10:51.275Z,10.53
2018-01-28T11:11:51.274Z,10.53
2018-01-28T11:12:51.046Z,10.54
2018-01-28T11:13:51.059Z,10.51
2018-01-28T11:14:51.106Z,10.59
2018-01-28T11:15:51.366Z,10.53
2018-01-28T11:16:50.863Z,10.49
2018-01-28T11:17:51.131Z,10.61
2018-01-28T11:18:51.147Z,10.78
2018-01-28T11:19:51.423Z,10.96
2018-01-28T11:20:51.458Z,10.94
2018-01-28T11:21:51.491Z,10.97
2018-01-28T11:22:51.225Z,11.02
2018-01-28T11:23:51.252Z,10.97
2018-01-28T11:24:51.517Z,11.08
2018-01-28T11:25:51.544Z,11.08
2018-01-28T11:26:51.045Z,11
2018-01-28T11:27:51.316Z,11.14
2018-01-28T11:28:51.350Z,11.08
2018-01-28T11:29:51.628Z,11.27
2018-01-28T11:30:51.375Z,11.3
2018-01-28T11:31:51.402Z,11.37
2018-01-28T11:32:51.432Z,11.32
2018-01-28T11:33:51.697Z,11.1
2018-01-28T11:34:51.471Z,11.27
2018-01-28T11:35:51.486Z,11.47
2018-01-28T11:36:51.759Z,11.55
2018-01-28T11:37:51.269Z,11.65
2018-01-28T11:38:51.288Z,11.4
2018-01-28T11:39:51.546Z,11.18
2018-01-28T11:40:51.837Z,11.23
2018-01-28T11:41:51.603Z,11.54
2018-01-28T11:42:51.610Z,11.52
2018-01-28T11:43:51.946Z,11.62
2018-01-28T11:44:51.646Z,11.54
2018-01-28T11:45:51.674Z,11.55
2018-01-28T11:46:51.945Z,11.44
2018-01-28T11:47:51.956Z,11.44
2018-01-28T11:48:51.989Z,11.41
2018-01-28T11:49:52.030Z,11.44
2018-01-28T11:50:51.529Z,11.55
2018-01-28T11:51:51.772Z,11.65
2018-01-28T11:52:52.042Z,11.55
2018-01-28T11:53:52.063Z,11.5
2018-01-28T11:54:51.845Z,11.52
2018-01-28T11:55:52.108Z,11.5
2018-01-28T11:56:51.869Z,11.57
2018-01-28T11:57:51.902Z,11.62
2018-01-28T11:58:51.945Z,11.77
2018-01-28T11:59:51.958Z,11.83
2018-01-28T12:00:51.943Z,11.62
2018-01-28T12:01:51.961Z,11.66
2018-01-28T12:02:52.024Z,11.84
2018-01-28T12:03:52.274Z,11.84
2018-01-28T12:04:52.036Z,11.86
2018-01-28T12:05:52.291Z,11.94
2018-01-28T12:06:52.072Z,11.88
2018-01-28T12:07:52.359Z,12
2018-01-28T12:08:52.396Z,12.09
2018-01-28T12:09:51.866Z,12.02
2018-01-28T12:10:52.151Z,12.02
2018-01-28T12:11:52.202Z,12.03
2018-01-28T12:12:52.484Z,12.09
2018-01-28T12:13:52.222Z,11.94
2018-01-28T12:14:52.507Z,11.95
2018-01-28T12:15:52.249Z,11.78
2018-01-28T12:16:52.255Z,11.91
2018-01-28T12:17:52.271Z,12
2018-01-28T12:18:52.542Z,11.99
2018-01-28T12:19:52.584Z,11.91
2018-01-28T12:20:52.588Z,11.9
2018-01-28T12:21:52.134Z,11.88
2018-01-28T12:22:52.640Z,11.77
2018-01-28T12:23:52.710Z,11.69
2018-01-28T12:24:52.695Z,11.72
2018-01-28T12:25:52.682Z,11.86
2018-01-28T12:26:52.448Z,11.83
2018-01-28T12:27:52.470Z,11.7
2018-01-28T12:28:52.755Z,11.59
2018-01-28T12:29:52.769Z,11.59
2018-01-28T12:30:52.800Z,11.68
2018-01-28T12:31:52.799Z,11.99
2018-01-28T12:32:52.580Z,12.03
2018-01-28T12:33:52.614Z,12.02
2018-01-28T12:34:52.642Z,12.25
2018-01-28T12:35:52.640Z,12.27
2018-01-28T12:36:52.684Z,12.17
2018-01-28T12:37:52.677Z,12.36
2018-01-28T12:38:52.687Z,12.28
2018-01-28T12:39:53.008Z,12.28
2018-01-28T12:40:52.982Z,12.09
2018-01-28T12:41:52.789Z,12.13
2018-01-28T12:42:52.790Z,11.9
2018-01-28T12:43:53.066Z,11.84
2018-01-28T12:44:52.837Z,11.95
2018-01-28T12:45:52.583Z,11.65
2018-01-28T12:46:53.128Z,11.57
2018-01-28T12:47:52.904Z,11.55
2018-01-28T12:48:53.136Z,11.55
2018-01-28T12:49:53.192Z,11.43
2018-01-28T12:50:53.197Z,11.68
2018-01-28T12:51:52.951Z,11.8
2018-01-28T12:52:52.962Z,11.75
2018-01-28T12:53:52.987Z,11.6
2018-01-28T12:54:53.261Z,11.62
2018-01-28T12:55:53.019Z,11.78
2018-01-28T12:56:53.319Z,11.86
2018-01-28T12:57:53.350Z,11.83
2018-01-28T12:58:53.123Z,11.91
2018-01-28T12:59:53.111Z,11.9
2018-01-28T13:00:53.145Z,11.78
2018-01-28T13:01:53.421Z,11.72
2018-01-28T13:02:53.163Z,11.91
2018-01-28T13:03:53.185Z,11.94
2018-01-28T13:04:53.470Z,12.06
2018-01-28T13:05:52.971Z,12.35
2018-01-28T13:06:53.503Z,12.54
2018-01-28T13:07:53.276Z,12.6
2018-01-28T13:08:53.281Z,12.57
2018-01-28T13:09:53.330Z,12.46
2018-01-28T13:10:53.080Z,12.4
2018-01-28T13:11:53.354Z,12.32
2018-01-28T13:12:53.122Z,12.27
2018-01-28T13:13:53.663Z,12.39
2018-01-28T13:14:53.146Z,12.67
2018-01-28T13:15:53.709Z,12.75
2018-01-28T13:16:53.730Z,13.04